Time;durP1;ratioP1;P1;durP2;ratioP2;P2;SDS_P1;SDS_P2;PMS_P1;PMS_P2;Temp;Humidity;BMP_temperature;BMP_pressure;BME280_temperature;BME280_humidity;BME280_pressure;Samples;Min_cycle;Max_cycle;Signal;HPM_P1;HPM_P2
2023/04/10 00:01:04;;;;;;;1.40;0.90;;;;;;;;;;6283908;22;20235;-87
2023/04/10 00:03:38;;;;;;;1.20;1.00;;;;;;;;;;6292718;22;20173;-88
2023/04/10 00:06:10;;;;;;;4.57;1.20;;;;;;;;;;6291287;22;20243;-87
2023/04/10 00:08:42;;;;;;;0.50;0.37;;;;;;;;;;6294454;22;20234;-90
2023/04/10 00:11:13;;;;;;;1.50;1.23;;;;;;;;;;6293841;22;20219;-88
2023/04/10 00:13:55;;;;;;;1.03;1.03;;;;;;;;;;6293639;22;20166;-89
2023/04/10 00:16:24;;;;;;;1.13;0.90;;;;;;;;;;6277393;22;20166;-90
2023/04/10 00:18:54;;;;;;;0.37;0.37;;;;;;;;;;6278362;22;20166;-90
2023/04/10 00:21:42;;;;;;;1.07;0.97;;;;;;;;;;6276687;22;20208;-90
2023/04/10 00:24:19;;;;;;;1.50;0.80;;;;;;;;;;6247917;22;20170;-90
2023/04/10 00:27:00;;;;;;;0.53;0.53;;;;;;;;;;6249015;22;20166;-90
2023/04/10 00:29:38;;;;;;;0.63;0.60;;;;;;;;;;6276209;22;20223;-91
2023/04/10 00:32:11;;;;;;;3.50;0.57;;;;;;;;;;6274338;22;20196;-91
2023/04/10 00:34:44;;;;;;;1.53;0.60;;;;;;;;;;6276373;22;20166;-90
2023/04/10 00:37:17;;;;;;;1.47;1.37;;;;;;;;;;6274688;22;20174;-91
2023/04/10 00:40:06;;;;;;;0.83;0.83;;;;;;;;;;6274625;22;20292;-90
2023/04/10 00:42:34;;;;;;;0.20;0.20;;;;;;;;;;6273511;22;20256;-88
2023/04/10 00:45:21;;;;;;;1.13;1.10;;;;;;;;;;6274698;22;20530;-90
2023/04/10 00:48:13;;;;;;;;;;;;;;;;;;;;;
2023/04/10 00:50:43;;;;;;;0.60;0.60;;;;;;;;;;6275849;22;20169;-88
2023/04/10 00:53:18;;;;;;;0.67;0.67;;;;;;;;;;6274664;22;20260;-91
2023/04/10 00:55:51;;;;;;;2.10;1.20;;;;;;;;;;6274976;22;20210;-88
2023/04/10 00:58:33;;;;;;;1.07;1.07;;;;;;;;;;6273160;22;20659;-89
2023/04/10 01:01:13;;;;;;;0.70;0.70;;;;;;;;;;6273427;22;20209;-90
2023/04/10 01:03:42;;;;;;;2.13;1.17;;;;;;;;;;6274258;22;20196;-90
2023/04/10 01:06:21;;;;;;;1.40;1.30;;;;;;;;;;6274948;22;20212;-90
2023/04/10 01:08:54;;;;;;;1.50;1.40;;;;;;;;;;6274130;22;20192;-88
2023/04/10 01:11:30;;;;;;;1.00;0.73;;;;;;;;;;6273882;22;20247;-90
2023/04/10 01:14:07;;;;;;;0.70;0.70;;;;;;;;;;6274669;22;20233;-90
2023/04/10 01:16:55;;;;;;;1.03;0.90;;;;;;;;;;6274053;22;20631;-90
2023/04/10 01:19:30;;;;;;;0.60;0.37;;;;;;;;;;6274986;22;20213;-89
2023/04/10 01:22:09;;;;;;;1.70;0.83;;;;;;;;;;6273357;22;20351;-90
2023/04/10 01:24:47;;;;;;;2.10;0.90;;;;;;;;;;6274049;22;20592;-88
2023/04/10 01:27:34;;;;;;;1.13;0.83;;;;;;;;;;6274524;22;20219;-89
2023/04/10 01:30:27;;;;;;;0.13;0.13;;;;;;;;;;6273536;22;20615;-90
2023/04/10 01:33:02;;;;;;;1.10;1.10;;;;;;;;;;6273137;22;20354;-89
2023/04/10 01:35:40;;;;;;;;;;;;;;;;;;;;;
2023/04/10 01:38:26;;;;;;;0.50;0.50;;;;;;;;;;6278087;22;20176;-88
2023/04/10 01:41:20;;;;;;;0.40;0.40;;;;;;;;;;6282455;22;20243;-88
2023/04/10 01:43:58;;;;;;;0.30;0.30;;;;;;;;;;6274905;22;20681;-89
2023/04/10 01:46:57;;;;;;;;;;;;;;;;;;;;;
2023/04/10 01:49:45;;;;;;;1.70;1.13;;;;;;;;;;6276118;22;20249;-89
2023/04/10 01:52:25;;;;;;;0.60;0.60;;;;;;;;;;6275639;22;20174;-89
2023/04/10 01:57:43;;;;;;;2.23;0.77;;;;;;;;;;6269384;22;20178;-89
2023/04/10 02:00:17;;;;;;;0.73;0.73;;;;;;;;;;6273281;22;20185;-90
2023/04/10 02:02:50;;;;;;;0.33;0.30;;;;;;;;;;6276166;22;20569;-88
2023/04/10 02:05:33;;;;;;;0.30;0.30;;;;;;;;;;6273851;22;20192;-88
2023/04/10 02:08:11;;;;;;;0.53;0.53;;;;;;;;;;6275515;22;20162;-89
2023/04/10 02:13:35;;;;;;;1.50;1.40;;;;;;;;;;6271946;22;20166;-90
2023/04/10 02:16:11;;;;;;;0.80;0.50;;;;;;;;;;6276349;22;20166;-90
2023/04/10 02:18:54;;;;;;;0.97;0.97;;;;;;;;;;6275970;22;20169;-90
2023/04/10 02:21:27;;;;;;;0.30;0.30;;;;;;;;;;6272836;22;20540;-90
2023/04/10 02:24:01;;;;;;;1.13;0.87;;;;;;;;;;6279815;22;20253;-89
2023/04/10 02:26:33;;;;;;;0.47;0.30;;;;;;;;;;6278314;22;20682;-88
2023/04/10 02:29:09;;;;;;;1.83;0.87;;;;;;;;;;6275893;22;20693;-89
2023/04/10 02:31:49;;;;;;;1.17;1.07;;;;;;;;;;6275316;22;20421;-89
2023/04/10 02:34:21;;;;;;;0.63;0.63;;;;;;;;;;6275117;22;20166;-89
2023/04/10 02:36:53;;;;;;;1.20;0.47;;;;;;;;;;6275554;22;20170;-88
2023/04/10 02:39:26;;;;;;;0.60;0.60;;;;;;;;;;6276718;22;20174;-89
2023/04/10 02:41:59;;;;;;;0.70;0.70;;;;;;;;;;6274726;22;20653;-88
2023/04/10 02:44:38;;;;;;;0.93;0.40;;;;;;;;;;6289160;22;20198;-87
2023/04/10 02:47:08;;;;;;;0.40;0.40;;;;;;;;;;6293097;22;20165;-88
2023/04/10 02:49:44;;;;;;;0.67;0.67;;;;;;;;;;6292937;22;20173;-87
2023/04/10 02:52:15;;;;;;;0.43;0.43;;;;;;;;;;6288388;22;20616;-88
2023/04/10 02:54:44;;;;;;;0.73;0.73;;;;;;;;;;6278923;22;20168;-89
2023/04/10 02:57:14;;;;;;;1.23;1.10;;;;;;;;;;6276608;22;20524;-88
2023/04/10 02:59:47;;;;;;;0.30;0.30;;;;;;;;;;6276720;22;20205;-89
2023/04/10 03:02:16;;;;;;;1.13;0.60;;;;;;;;;;6276916;22;20282;-90
2023/04/10 03:07:45;;;;;;;0.97;0.97;;;;;;;;;;6274567;22;20176;-90
2023/04/10 03:10:21;;;;;;;1.37;0.73;;;;;;;;;;6271317;22;20190;-89
2023/04/10 03:12:55;;;;;;;0.70;0.70;;;;;;;;;;6274588;22;20315;-90
2023/04/10 03:15:24;;;;;;;0.80;0.80;;;;;;;;;;6274723;22;20170;-88
2023/04/10 03:17:55;;;;;;;0.67;0.57;;;;;;;;;;6274601;22;20184;-90
2023/04/10 03:20:23;;;;;;;0.87;0.87;;;;;;;;;;6273909;22;20189;-88
2023/04/10 03:23:02;;;;;;;0.30;0.30;;;;;;;;;;6274734;22;20282;-90
2023/04/10 03:25:54;;;;;;;0.70;0.70;;;;;;;;;;6275381;22;20623;-91
2023/04/10 03:28:47;;;;;;;0.70;0.70;;;;;;;;;;6275103;22;20166;-91
2023/04/10 03:31:27;;;;;;;0.50;0.50;;;;;;;;;;6274147;22;20244;-89
2023/04/10 03:34:03;;;;;;;1.13;0.47;;;;;;;;;;6273555;22;20174;-90
2023/04/10 03:36:45;;;;;;;1.80;0.40;;;;;;;;;;6283775;22;20204;-90
2023/04/10 03:39:28;;;;;;;1.43;1.43;;;;;;;;;;6274196;22;20572;-89
2023/04/10 03:42:05;;;;;;;0.50;0.50;;;;;;;;;;6260180;22;20293;-89
2023/04/10 03:44:37;;;;;;;0.87;0.83;;;;;;;;;;6214354;23;20621;-90
2023/04/10 03:47:12;;;;;;;1.23;0.53;;;;;;;;;;6233536;23;20191;-89
2023/04/10 03:49:49;;;;;;;0.63;0.63;;;;;;;;;;6253078;23;20174;-89
2023/04/10 03:52:26;;;;;;;0.47;0.43;;;;;;;;;;6257385;23;20194;-91
2023/04/10 03:54:55;;;;;;;1.27;1.13;;;;;;;;;;6260028;23;20201;-89
2023/04/10 03:57:33;;;;;;;0.70;0.70;;;;;;;;;;6258652;23;20166;-88
2023/04/10 04:00:07;;;;;;;0.97;0.97;;;;;;;;;;6249508;23;20173;-89
2023/04/10 04:02:41;;;;;;;0.80;0.80;;;;;;;;;;6244680;23;20201;-89
2023/04/10 04:05:16;;;;;;;0.93;0.90;;;;;;;;;;6247130;23;20536;-89
2023/04/10 04:07:44;;;;;;;1.00;1.00;;;;;;;;;;6245864;23;20221;-89
2023/04/10 04:10:14;;;;;;;0.93;0.93;;;;;;;;;;6245703;22;20225;-89
2023/04/10 04:12:44;;;;;;;1.13;1.03;;;;;;;;;;6243842;23;20260;-90
2023/04/10 04:18:15;;;;;;;1.83;1.13;;;;;;;;;;6236546;23;20179;-89
2023/04/10 04:20:57;;;;;;;1.47;1.07;;;;;;;;;;6243370;23;20174;-88
2023/04/10 04:23:38;;;;;;;2.23;1.17;;;;;;;;;;6218446;23;20203;-88
2023/04/10 04:26:33;;;;;;;2.83;1.57;;;;;;;;;;6246462;23;20186;-88
2023/04/10 04:29:32;;;;;;;1.03;0.40;;;;;;;;;;6255764;23;20225;-90
2023/04/10 04:33:01;;;;;;;;;;;;;;;;;;;;;
2023/04/10 04:35:48;;;;;;;2.23;0.70;;;;;;;;;;6145124;23;20174;-94
2023/04/10 05:15:14;;;;;;;1.63;1.53;;;;;;;;;;6180801;23;20191;-95
2023/04/10 05:21:00;;;;;;;1.90;1.43;;;;;;;;;;6159580;23;20176;-95
2023/04/10 07:43:55;;;;;;;1.43;1.33;;;;;;;;;;4997402;28;20220;-89
2023/04/10 07:47:05;;;;;;;;;;;;;;;;;;;;;
2023/04/10 08:04:47;;;;;;;;;;;;;;;;;;;;;
2023/04/10 09:50:45;;;;;;;4.53;2.30;;;;;;;;;;5145494;23;20308;-90
2023/04/10 09:56:06;;;;;;;2.23;2.03;;;;;;;;;;5059787;28;20236;-90
2023/04/10 10:04:29;;;;;;;2.77;1.87;;;;;;;;;;5074651;28;20287;-90
2023/04/10 10:07:22;;;;;;;1.43;1.43;;;;;;;;;;5077898;28;20239;-91
2023/04/10 10:10:16;;;;;;;3.47;2.37;;;;;;;;;;5014291;28;20833;-89
2023/04/10 12:12:41;;;;;;;1.43;1.27;;;;;;;;;;4945500;28;20253;-88
2023/04/10 12:22:09;;;;;;;2.50;1.33;;;;;;;;;;4981010;28;20224;-89
2023/04/10 12:27:50;;;;;;;3.87;1.60;;;;;;;;;;4924716;28;20297;-92
